Time;durP1;ratioP1;P1;durP2;ratioP2;P2;SDS_P1;SDS_P2;PMS_P1;PMS_P2;Temp;Humidity;BMP_temperature;BMP_pressure;BME280_temperature;BME280_humidity;BME280_pressure;Samples;Min_cycle;Max_cycle;Signal;HPM_P1;HPM_P2
2023/03/10 00:01:27;;;;;;;32.75;13.75;;;0.90;99.90;;;-0.87;100.00;98268.03;4992091;28;20513;-77
2023/03/10 00:03:55;;;;;;;39.78;14.40;;;0.90;99.90;;;-0.88;100.00;98263.69;4991635;28;20042;-77
2023/03/10 00:06:24;;;;;;;41.15;14.43;;;0.80;99.90;;;-0.87;100.00;98257.31;4986328;28;20070;-77
2023/03/10 00:08:51;;;;;;;36.40;13.05;;;0.90;99.90;;;-0.87;100.00;98251.97;4991241;28;20053;-76
2023/03/10 00:11:17;;;;;;;36.33;13.90;;;0.80;99.90;;;-0.84;100.00;98254.22;4992089;28;20041;-77
2023/03/10 00:13:43;;;;;;;36.13;13.80;;;0.90;99.90;;;-0.93;100.00;98236.72;4991554;28;20550;-76
2023/03/10 00:16:29;;;;;;;35.40;13.75;;;0.80;99.90;;;-0.89;100.00;98235.28;4991742;28;20070;-76
2023/03/10 00:18:55;;;;;;;34.05;12.20;;;0.80;99.90;;;-0.90;100.00;98225.59;4987831;28;20120;-77
2023/03/10 00:21:29;;;;;;;36.80;13.35;;;0.80;99.90;;;-0.89;100.00;98216.53;5007140;28;20042;-77
2023/03/10 00:23:55;;;;;;;34.67;13.00;;;0.80;99.90;;;-0.87;100.00;98206.44;5001202;28;20030;-77
2023/03/10 00:26:24;;;;;;;38.20;12.90;;;0.90;99.90;;;-0.86;100.00;98202.75;4991213;28;20034;-76
2023/03/10 00:28:50;;;;;;;30.60;12.57;;;0.80;99.90;;;-0.86;100.00;98200.06;4991201;28;20528;-76
2023/03/10 00:31:20;;;;;;;34.53;13.88;;;0.80;99.90;;;-0.86;100.00;98194.72;4991687;28;20042;-76
2023/03/10 00:33:46;;;;;;;31.73;12.07;;;0.90;99.90;;;-0.84;100.00;98187.31;4991633;28;20034;-76
2023/03/10 00:36:22;;;;;;;34.28;12.35;;;0.90;99.90;;;-0.88;100.00;98173.50;4990886;28;20038;-76
2023/03/10 00:38:51;;;;;;;30.40;11.75;;;0.90;99.90;;;-0.85;100.00;98168.78;4985740;28;20046;-76
2023/03/10 00:41:20;;;;;;;33.03;11.93;;;0.90;99.90;;;-0.89;100.00;98174.53;4973423;28;20125;-76
2023/03/10 00:43:47;;;;;;;34.30;12.52;;;0.90;99.90;;;-0.88;100.00;98157.44;4990095;28;20034;-76
2023/03/10 00:46:14;;;;;;;28.05;12.07;;;0.80;99.90;;;-0.86;100.00;98159.91;4990742;28;20038;-76
2023/03/10 00:48:40;;;;;;;31.27;11.70;;;0.90;99.90;;;-0.87;100.00;98155.59;4991063;28;20050;-76
2023/03/10 00:51:07;;;;;;;33.95;11.93;;;0.90;99.90;;;-0.85;100.00;98150.03;4985248;28;20437;-76
2023/03/10 00:53:36;;;;;;;27.73;10.80;;;0.90;99.90;;;-0.85;100.00;98158.88;4990261;28;20034;-76
2023/03/10 00:56:13;;;;;;;25.48;10.13;;;0.90;99.90;;;-0.88;100.00;98149.41;4991183;28;20109;-76
2023/03/10 00:58:41;;;;;;;28.90;11.13;;;0.90;99.90;;;-0.83;100.00;98148.78;4999286;28;20042;-76
2023/03/10 01:01:18;;;;;;;30.70;11.07;;;0.90;99.90;;;-0.82;100.00;98145.09;4989457;28;20034;-76
2023/03/10 01:03:45;;;;;;;29.77;10.85;;;0.90;99.90;;;-0.88;100.00;98138.72;4973711;28;20065;-76
2023/03/10 01:06:11;;;;;;;28.02;10.32;;;0.80;99.90;;;-0.84;100.00;98140.97;4990953;28;20482;-76
2023/03/10 01:08:37;;;;;;;26.92;10.57;;;0.90;99.90;;;-0.86;100.00;98135.81;4989666;28;20089;-76
2023/03/10 01:11:03;;;;;;;24.80;10.32;;;0.80;99.90;;;-0.90;100.00;98115.84;4988824;28;20037;-76
2023/03/10 01:13:30;;;;;;;29.10;10.63;;;0.80;99.90;;;-0.89;100.00;98115.66;4967775;28;20068;-76
2023/03/10 01:15:55;;;;;;;30.30;10.85;;;0.80;99.90;;;-0.89;100.00;98109.47;4990853;28;20085;-76
2023/03/10 01:18:21;;;;;;;32.20;11.30;;;0.90;99.90;;;-0.95;100.00;98105.72;4989379;28;20042;-75
2023/03/10 01:20:48;;;;;;;28.77;10.77;;;0.80;99.90;;;-0.97;100.00;98093.59;4989495;28;20072;-76
2023/03/10 01:23:27;;;;;;;30.15;11.55;;;0.80;99.90;;;-0.91;100.00;98092.78;4971429;28;20877;-75
2023/03/10 01:25:52;;;;;;;30.27;10.50;;;0.80;99.90;;;-0.89;100.00;98093.38;4988697;28;20484;-76
2023/03/10 01:28:19;;;;;;;30.23;11.10;;;0.80;99.90;;;-0.95;100.00;98067.44;4986243;28;20034;-76
2023/03/10 01:30:47;;;;;;;31.90;10.98;;;0.80;99.90;;;-0.88;100.00;98076.31;4980621;28;20034;-76
2023/03/10 01:33:15;;;;;;;28.50;11.00;;;0.90;99.90;;;-0.89;100.00;98064.78;4990402;28;20541;-76
2023/03/10 01:35:41;;;;;;;29.33;11.48;;;0.80;99.90;;;-0.92;100.00;98056.31;4989501;28;20035;-76
2023/03/10 01:38:07;;;;;;;28.73;10.80;;;0.80;99.90;;;-0.88;100.00;98046.84;4988312;28;20140;-75
2023/03/10 01:40:35;;;;;;;30.75;11.25;;;0.90;99.90;;;-0.87;100.00;98043.97;5005661;28;20035;-76
2023/03/10 01:43:19;;;;;;;;;;;0.90;99.90;;;-0.88;100.00;98034.31;4999243;28;20038;-76
2023/03/10 01:45:45;;;;;;;30.23;10.27;;;0.90;99.90;;;-0.87;100.00;98027.91;4985300;28;19917;-76
2023/03/10 01:48:15;;;;;;;30.77;10.45;;;0.80;99.90;;;-0.84;100.00;98013.28;4972798;28;20064;-75
2023/03/10 01:50:45;;;;;;;26.05;10.93;;;0.90;99.90;;;-0.79;100.00;98008.16;4986496;28;20086;-76
2023/03/10 01:53:13;;;;;;;26.77;11.20;;;0.90;99.90;;;-0.86;100.00;97991.25;4989640;28;20022;-76
2023/03/10 01:55:46;;;;;;;;;;;0.90;99.90;;;-0.82;100.00;97981.75;4984544;28;20038;-76
2023/03/10 01:58:15;;;;;;;25.13;9.77;;;0.90;99.90;;;-0.79;100.00;97984.06;4977991;28;20369;-75
2023/03/10 02:00:42;;;;;;;29.23;10.35;;;0.90;99.90;;;-0.78;100.00;97971.47;4988485;28;20031;-76
2023/03/10 02:03:42;;;;;;;27.63;11.27;;;0.90;99.90;;;-0.80;100.00;97976.22;4989577;28;20405;-76
2023/03/10 02:06:12;;;;;;;27.38;10.98;;;0.90;99.90;;;-0.76;100.00;97972.09;4962128;28;20116;-76
2023/03/10 02:08:49;;;;;;;24.63;10.15;;;0.90;99.90;;;-0.75;100.00;97966.53;4999535;28;20512;-76
2023/03/10 02:11:15;;;;;;;21.85;9.02;;;0.90;99.90;;;-0.76;100.00;97962.22;4983028;28;20494;-76
2023/03/10 02:13:42;;;;;;;24.88;10.35;;;1.00;99.90;;;-0.73;100.00;97955.59;4985976;28;20065;-75
2023/03/10 02:16:08;;;;;;;26.50;9.45;;;1.00;99.90;;;-0.70;100.00;97949.00;4989819;28;20034;-76
2023/03/10 02:18:34;;;;;;;26.67;10.50;;;1.00;99.90;;;-0.68;100.00;97941.59;4987277;28;20042;-75
2023/03/10 02:21:17;;;;;;;24.10;9.73;;;1.00;99.90;;;-0.62;100.00;97935.38;4988666;28;20041;-75
2023/03/10 02:24:08;;;;;;;24.73;9.25;;;1.00;99.90;;;-0.63;100.00;97920.34;4990442;28;20170;-76
2023/03/10 02:26:53;;;;;;;24.80;9.50;;;1.10;99.90;;;-0.66;100.00;97926.13;5007093;28;20432;-75
2023/03/10 02:29:39;;;;;;;24.65;8.65;;;1.10;99.90;;;-0.63;100.00;97917.66;4991274;28;20053;-76
2023/03/10 02:32:06;;;;;;;25.40;9.15;;;1.10;99.90;;;-0.60;100.00;97914.56;4988219;28;20125;-75
2023/03/10 02:34:32;;;;;;;24.48;9.65;;;1.10;99.90;;;-0.63;100.00;97899.75;5008477;28;20042;-75
2023/03/10 02:36:58;;;;;;;21.67;9.32;;;1.10;99.90;;;-0.59;100.00;97900.13;4992739;28;20562;-76
2023/03/10 02:39:24;;;;;;;21.23;8.63;;;1.10;99.90;;;-0.59;100.00;97897.47;5007842;28;20038;-76
2023/03/10 02:41:51;;;;;;;20.00;8.48;;;1.10;99.90;;;-0.60;100.00;97883.25;5008301;28;20026;-75
2023/03/10 02:44:22;;;;;;;22.23;9.07;;;1.10;99.90;;;-0.57;100.00;97887.34;5008377;28;20053;-75
2023/03/10 02:46:49;;;;;;;21.02;8.60;;;1.10;99.90;;;-0.54;100.00;97888.78;5008262;28;20030;-75
2023/03/10 02:49:20;;;;;;;21.33;8.80;;;1.20;99.90;;;-0.55;100.00;97881.81;4993538;28;20046;-75
2023/03/10 02:51:46;;;;;;;21.85;8.35;;;1.10;99.90;;;-0.57;100.00;97873.16;5005660;28;20121;-75
2023/03/10 02:54:14;;;;;;;22.52;8.48;;;1.10;99.90;;;-0.59;100.00;97876.88;4993423;28;20061;-75
2023/03/10 02:56:41;;;;;;;18.85;7.80;;;1.20;99.90;;;-0.56;100.00;97880.16;4977028;28;20054;-75
2023/03/10 02:59:09;;;;;;;20.55;7.60;;;1.20;99.90;;;-0.53;100.00;97869.84;5005066;28;20117;-75
2023/03/10 03:01:38;;;;;;;20.08;8.35;;;1.20;99.90;;;-0.54;100.00;97851.31;4992404;28;20039;-75
2023/03/10 03:04:05;;;;;;;18.85;8.00;;;1.20;99.90;;;-0.54;100.00;97859.34;4991648;28;20133;-75
2023/03/10 03:06:31;;;;;;;17.55;7.50;;;1.20;99.90;;;-0.56;100.00;97859.53;4990163;28;20078;-76
2023/03/10 03:08:58;;;;;;;17.90;7.30;;;1.20;99.90;;;-0.54;100.00;97862.00;4988266;28;20410;-76
2023/03/10 03:11:26;;;;;;;15.07;6.40;;;1.20;99.90;;;-0.55;100.00;97849.66;4993382;28;20110;-76
2023/03/10 03:13:53;;;;;;;16.85;7.30;;;1.20;99.90;;;-0.54;100.00;97845.94;4991077;28;20070;-75
2023/03/10 03:16:18;;;;;;;15.55;7.10;;;1.20;99.90;;;-0.52;100.00;97833.16;5006943;28;20423;-75
2023/03/10 03:18:47;;;;;;;14.90;6.85;;;1.20;99.90;;;-0.53;100.00;97824.31;5007767;28;20031;-75
2023/03/10 03:21:17;;;;;;;17.33;7.43;;;1.20;99.90;;;-0.52;100.00;97820.59;5005864;28;20046;-75
2023/03/10 03:23:45;;;;;;;16.33;7.13;;;1.20;99.90;;;-0.55;100.00;97812.97;4991750;28;20039;-75
2023/03/10 03:26:24;;;;;;;16.02;7.28;;;1.20;99.90;;;-0.48;100.00;97805.75;4991825;28;20034;-75
2023/03/10 03:28:55;;;;;;;14.05;6.40;;;1.20;99.90;;;-0.50;100.00;97799.78;4985491;28;20042;-75
2023/03/10 03:31:25;;;;;;;15.00;6.75;;;1.20;99.90;;;-0.46;100.00;97795.63;5007273;28;20038;-75
2023/03/10 03:33:57;;;;;;;14.05;6.85;;;1.20;99.90;;;-0.45;100.00;97797.28;4991018;28;20034;-75
2023/03/10 03:36:24;;;;;;;13.77;6.55;;;1.30;99.90;;;-0.42;100.00;97789.84;5006834;28;20030;-75
2023/03/10 03:38:49;;;;;;;16.20;7.25;;;1.30;99.90;;;-0.42;100.00;97782.59;4992451;28;20049;-75
2023/03/10 03:41:16;;;;;;;15.98;6.70;;;1.30;99.90;;;-0.40;100.00;97777.84;4991079;28;20483;-76
2023/03/10 03:43:42;;;;;;;13.23;6.15;;;1.30;99.90;;;-0.41;100.00;97775.41;5008200;28;20063;-75
2023/03/10 03:46:08;;;;;;;17.63;6.60;;;1.30;99.90;;;-0.44;100.00;97772.13;4990240;28;20606;-75
2023/03/10 03:48:34;;;;;;;14.63;6.88;;;1.30;99.90;;;-0.42;100.00;97768.41;5001305;28;20494;-75
2023/03/10 03:51:02;;;;;;;12.93;6.38;;;1.30;99.90;;;-0.42;100.00;97763.84;4986437;28;20362;-75
2023/03/10 03:53:35;;;;;;;13.13;6.35;;;1.30;99.90;;;-0.40;100.00;97766.31;5007146;28;20034;-75
2023/03/10 03:56:02;;;;;;;13.70;5.65;;;1.30;99.90;;;-0.40;100.00;97763.66;4990763;28;20050;-75
2023/03/10 03:58:32;;;;;;;14.88;6.95;;;1.30;99.90;;;-0.40;100.00;97767.13;5003406;28;20124;-75
2023/03/10 04:00:57;;;;;;;13.80;6.35;;;1.30;99.90;;;-0.39;100.00;97765.28;4992034;28;20500;-75
2023/03/10 04:03:25;;;;;;;14.50;6.03;;;1.30;99.90;;;-0.38;100.00;97753.53;5007011;28;20071;-75
2023/03/10 04:05:51;;;;;;;11.68;5.53;;;1.30;99.90;;;-0.41;100.00;97751.28;4990046;28;20500;-75
2023/03/10 04:08:19;;;;;;;13.75;6.50;;;1.30;99.90;;;-0.46;100.00;97758.13;5007040;28;20378;-75
2023/03/10 04:10:53;;;;;;;11.18;6.07;;;1.20;99.90;;;-0.47;100.00;97743.09;4990255;28;20035;-75
2023/03/10 04:13:20;;;;;;;13.88;5.80;;;1.20;99.90;;;-0.47;100.00;97740.41;5006294;28;20034;-75
2023/03/10 04:15:47;;;;;;;14.00;6.47;;;1.30;99.90;;;-0.46;100.00;97749.25;4989969;28;20537;-75
2023/03/10 04:18:14;;;;;;;14.73;7.00;;;1.30;99.90;;;-0.49;100.00;97753.19;4990488;28;20125;-75
2023/03/10 04:20:40;;;;;;;12.00;6.20;;;1.20;99.90;;;-0.45;100.00;97748.22;4990498;28;20145;-75
2023/03/10 04:23:06;;;;;;;13.23;6.38;;;1.30;99.90;;;-0.46;100.00;97755.44;5006419;28;20034;-74
2023/03/10 04:25:35;;;;;;;11.82;5.78;;;1.30;99.90;;;-0.47;100.00;97748.44;5005932;28;20450;-75
2023/03/10 04:28:01;;;;;;;11.60;6.32;;;1.30;99.90;;;-0.45;100.00;97762.44;4989219;28;20030;-75
2023/03/10 04:30:28;;;;;;;12.65;6.15;;;1.30;99.90;;;-0.50;100.00;97751.56;5006776;28;20100;-75
2023/03/10 04:32:59;;;;;;;16.02;7.05;;;1.30;99.90;;;-0.52;100.00;97753.63;4990657;28;20057;-74
2023/03/10 04:35:27;;;;;;;12.82;6.30;;;1.30;99.90;;;-0.46;100.00;97743.91;4980591;28;20080;-75
2023/03/10 04:37:53;;;;;;;14.70;6.67;;;1.30;99.90;;;-0.45;100.00;97758.94;4990897;28;20081;-74
2023/03/10 04:40:21;;;;;;;13.35;6.22;;;1.30;99.90;;;-0.46;100.00;97741.22;5005570;28;20321;-75
2023/03/10 04:42:47;;;;;;;14.35;7.32;;;1.30;99.90;;;-0.40;100.00;97734.97;4990263;28;20050;-75
2023/03/10 04:45:13;;;;;;;14.68;6.43;;;1.30;99.90;;;-0.40;100.00;97737.66;4988423;28;20035;-75
2023/03/10 04:47:40;;;;;;;14.07;6.65;;;1.30;99.90;;;-0.37;100.00;97741.78;5006163;28;20038;-75
2023/03/10 04:50:09;;;;;;;13.07;6.40;;;1.40;99.90;;;-0.32;100.00;97731.22;4991460;28;20056;-75
2023/03/10 04:52:34;;;;;;;14.30;7.10;;;1.40;99.90;;;-0.34;100.00;97742.19;5000595;28;20448;-75
2023/03/10 04:55:00;;;;;;;16.48;6.70;;;1.40;99.90;;;-0.33;100.00;97738.47;5004970;28;20138;-75
2023/03/10 04:57:26;;;;;;;13.38;6.50;;;1.40;99.90;;;-0.34;100.00;97744.03;5005895;28;20038;-75
2023/03/10 04:59:53;;;;;;;13.07;6.72;;;1.40;99.90;;;-0.36;100.00;97744.25;4973565;28;20077;-75
2023/03/10 05:02:19;;;;;;;15.00;6.47;;;1.40;99.90;;;-0.33;100.00;97740.31;4992346;28;20037;-75
2023/03/10 05:04:45;;;;;;;13.93;6.65;;;1.40;99.90;;;-0.31;100.00;97725.66;5005512;28;20057;-75
2023/03/10 05:07:11;;;;;;;13.35;6.75;;;1.40;99.90;;;-0.25;100.00;97745.41;4989052;28;20034;-75
2023/03/10 05:09:42;;;;;;;15.27;7.30;;;1.40;99.90;;;-0.27;100.00;97733.25;4988817;28;20034;-75
2023/03/10 05:12:09;;;;;;;18.42;8.02;;;1.50;99.90;;;-0.29;100.00;97733.47;5006020;28;20026;-75
2023/03/10 05:14:36;;;;;;;16.90;7.47;;;1.40;99.90;;;-0.28;100.00;97743.16;4990175;28;20038;-75
2023/03/10 05:17:03;;;;;;;15.87;7.33;;;1.50;99.90;;;-0.21;100.00;97760.00;4990061;28;20026;-75
2023/03/10 05:19:32;;;;;;;14.80;7.25;;;1.50;99.90;;;-0.11;100.00;97756.84;4989547;28;20048;-75
2023/03/10 05:21:58;;;;;;;13.25;7.20;;;1.60;99.90;;;-0.11;100.00;97756.00;4988905;28;20553;-75
2023/03/10 05:24:24;;;;;;;19.63;9.18;;;1.60;99.90;;;-0.08;100.00;97744.84;4990763;28;20101;-75
2023/03/10 05:26:50;;;;;;;17.00;8.25;;;1.60;99.90;;;0.01;100.00;97756.97;4989063;28;20041;-75
2023/03/10 05:29:16;;;;;;;18.83;8.80;;;1.70;99.90;;;-0.02;100.00;97776.13;4989052;28;20520;-75
2023/03/10 05:31:47;;;;;;;15.52;7.07;;;1.70;99.90;;;0.00;100.00;97771.41;4989599;28;20038;-75
2023/03/10 05:34:19;;;;;;;13.25;7.05;;;1.70;99.90;;;-0.05;100.00;97777.41;4999859;28;20035;-76
2023/03/10 05:36:47;;;;;;;22.63;9.85;;;1.70;99.90;;;-0.05;100.00;97774.72;4989367;28;20027;-76
2023/03/10 05:39:14;;;;;;;17.10;7.65;;;1.70;99.90;;;0.00;100.00;97774.09;4988671;28;20121;-76
2023/03/10 05:41:44;;;;;;;14.00;7.03;;;1.70;99.90;;;-0.02;100.00;97784.19;4989006;28;20038;-76
2023/03/10 05:44:10;;;;;;;14.40;8.27;;;1.70;99.90;;;-0.01;100.00;97781.28;4988995;28;20057;-76
2023/03/10 05:46:37;;;;;;;14.98;8.13;;;1.70;99.90;;;0.02;100.00;97785.41;4988728;28;20031;-76
2023/03/10 05:49:03;;;;;;;14.98;7.22;;;1.70;99.90;;;0.02;100.00;97785.41;4989766;28;20043;-76
2023/03/10 05:51:29;;;;;;;14.25;7.18;;;1.80;99.90;;;0.03;100.00;97787.06;4990132;28;20078;-77
2023/03/10 05:53:56;;;;;;;13.77;7.00;;;1.70;99.90;;;0.08;100.00;97797.94;4988864;28;20069;-76
2023/03/10 05:56:26;;;;;;;12.27;6.43;;;1.80;99.90;;;0.09;100.00;97796.06;4991361;28;20045;-76
2023/03/10 05:58:56;;;;;;;16.98;8.40;;;1.80;99.90;;;0.11;100.00;97788.63;4988847;28;20042;-76
2023/03/10 06:01:27;;;;;;;16.75;9.35;;;1.80;99.90;;;0.09;100.00;97806.78;4972800;28;20031;-77
2023/03/10 06:03:53;;;;;;;16.30;8.13;;;1.80;99.90;;;0.11;100.00;97816.25;4993563;28;20038;-78
2023/03/10 06:06:18;;;;;;;14.27;7.68;;;1.80;99.90;;;0.07;100.00;97807.03;4994697;28;20419;-77
2023/03/10 06:08:44;;;;;;;13.23;7.82;;;1.90;99.90;;;0.03;100.00;97805.81;5007548;28;20046;-77
2023/03/10 06:11:11;;;;;;;13.35;7.90;;;1.80;99.90;;;0.07;100.00;97822.28;4994073;28;20034;-77
2023/03/10 06:13:37;;;;;;;15.85;7.60;;;1.80;99.90;;;0.04;100.00;97828.06;4994683;28;20078;-77
2023/03/10 06:16:05;;;;;;;13.30;7.10;;;1.80;99.90;;;0.08;100.00;97829.28;5008833;28;20065;-77
2023/03/10 06:18:31;;;;;;;14.75;7.55;;;1.80;99.90;;;0.08;100.00;97831.94;4994056;28;20042;-78
2023/03/10 06:20:56;;;;;;;20.38;6.85;;;1.80;99.90;;;0.07;100.00;97833.81;4993900;28;20385;-77
2023/03/10 06:23:24;;;;;;;13.55;7.88;;;1.80;99.90;;;0.09;100.00;97845.16;4994299;28;20518;-77
2023/03/10 06:26:17;;;;;;;15.93;7.72;;;1.80;99.90;;;0.15;100.00;97848.84;4994172;28;20121;-78
2023/03/10 06:28:45;;;;;;;15.13;7.32;;;1.90;99.90;;;0.17;100.00;97856.63;4987337;28;20133;-77
2023/03/10 06:31:16;;;;;;;15.13;8.00;;;1.90;99.90;;;0.16;100.00;97845.13;4993324;28;20113;-77
2023/03/10 06:33:42;;;;;;;12.90;7.38;;;1.90;99.90;;;0.18;100.00;97852.91;4983720;28;20038;-76
2023/03/10 06:36:10;;;;;;;14.05;7.10;;;1.90;99.90;;;0.16;100.00;97869.25;5006217;28;20034;-77
2023/03/10 06:38:36;;;;;;;12.25;7.32;;;1.90;99.90;;;0.13;100.00;97857.09;5009044;28;20544;-78
2023/03/10 06:41:02;;;;;;;16.45;7.03;;;1.90;99.90;;;0.14;100.00;97874.81;4993891;28;20042;-78
2023/03/10 06:43:29;;;;;;;17.95;7.70;;;1.90;99.90;;;0.11;100.00;97874.41;4993064;28;20113;-77
2023/03/10 06:45:55;;;;;;;11.02;5.88;;;1.90;99.90;;;0.07;100.00;97874.03;4993147;28;20042;-79
2023/03/10 06:48:21;;;;;;;15.02;7.68;;;1.90;99.90;;;0.08;100.00;97870.31;4993255;28;20387;-78
2023/03/10 06:50:49;;;;;;;17.13;7.93;;;1.90;99.90;;;0.08;100.00;97875.69;4991987;28;20397;-78
2023/03/10 06:53:18;;;;;;;14.45;7.63;;;1.80;99.90;;;0.07;100.00;97887.44;4988465;28;20044;-79
2023/03/10 06:55:44;;;;;;;14.82;8.70;;;1.90;99.90;;;0.11;100.00;97893.19;4991648;28;20438;-77
2023/03/10 06:58:10;;;;;;;16.52;7.85;;;1.90;99.90;;;0.16;100.00;97884.50;5008253;28;20110;-77
2023/03/10 07:00:38;;;;;;;13.05;6.95;;;2.00;99.90;;;0.17;100.00;97892.34;4987542;28;20412;-78
2023/03/10 07:03:04;;;;;;;;;;;2.00;99.90;;;0.26;100.00;97898.25;4991767;28;20402;-78
2023/03/10 07:05:29;;;;;;;11.48;6.07;;;2.10;99.90;;;0.25;100.00;97897.44;5005454;28;19921;-77
2023/03/10 07:07:55;;;;;;;12.95;6.43;;;2.10;99.90;;;0.22;100.00;97897.03;4989953;28;20050;-78
2023/03/10 07:10:22;;;;;;;15.18;6.97;;;2.00;99.90;;;0.33;100.00;97901.72;4988143;28;20041;-77
2023/03/10 07:12:53;;;;;;;11.48;6.53;;;2.10;99.90;;;0.40;100.00;97907.03;4990193;28;20121;-78
2023/03/10 07:15:22;;;;;;;13.68;7.35;;;2.20;99.90;;;0.41;100.00;97906.81;4989645;28;20174;-79
2023/03/10 07:17:48;;;;;;;12.30;6.45;;;2.20;99.90;;;0.43;100.00;97903.91;4990509;28;20096;-79
2023/03/10 07:20:14;;;;;;;9.55;5.00;;;2.30;99.90;;;0.37;100.00;97912.81;4990681;28;20038;-79
2023/03/10 07:22:39;;;;;;;11.10;6.40;;;2.20;99.90;;;0.37;100.00;97921.69;4989355;28;20089;-78
2023/03/10 07:25:06;;;;;;;11.07;5.45;;;2.20;99.90;;;0.31;100.00;97922.56;4991106;28;20050;-78
2023/03/10 07:27:32;;;;;;;13.07;5.47;;;2.10;99.90;;;0.23;100.00;97915.59;4990088;28;20064;-80
2023/03/10 07:29:57;;;;;;;10.88;6.10;;;2.10;99.90;;;0.29;100.00;97930.00;4988800;28;20383;-78
2023/03/10 07:32:23;;;;;;;9.80;6.22;;;2.10;99.90;;;0.38;100.00;97928.69;4988018;28;20085;-78
2023/03/10 07:34:51;;;;;;;10.85;5.55;;;2.10;99.90;;;0.47;100.00;97928.44;4986592;28;20045;-78
2023/03/10 07:37:16;;;;;;;9.48;6.13;;;2.20;99.90;;;0.42;100.00;97940.63;4989936;28;20402;-79
2023/03/10 07:39:42;;;;;;;11.18;6.20;;;2.20;99.90;;;0.39;100.00;97956.31;4990010;28;20042;-81
2023/03/10 07:42:08;;;;;;;12.93;6.63;;;2.20;99.90;;;0.33;100.00;97946.47;4990342;28;20041;-78
2023/03/10 07:44:34;;;;;;;12.50;6.38;;;2.20;99.90;;;0.42;100.00;97943.31;4997347;28;20096;-78
2023/03/10 07:47:00;;;;;;;11.75;6.50;;;2.20;99.90;;;0.51;100.00;97943.03;4996514;28;20107;-78
2023/03/10 07:49:25;;;;;;;10.65;5.90;;;2.20;99.90;;;0.53;100.00;97946.31;5003499;28;20049;-77
2023/03/10 07:51:51;;;;;;;11.35;6.47;;;2.30;99.90;;;0.59;100.00;97961.56;4989080;28;20042;-77
2023/03/10 07:54:17;;;;;;;14.77;6.72;;;2.30;99.90;;;0.59;100.00;97966.94;5007291;28;20042;-79
2023/03/10 07:56:42;;;;;;;13.27;6.50;;;2.40;99.90;;;0.55;100.00;97973.78;4992986;28;20068;-79
2023/03/10 07:59:08;;;;;;;9.40;6.38;;;2.30;99.90;;;0.58;100.00;97970.66;4993357;28;20054;-76
2023/03/10 08:01:34;;;;;;;15.27;6.68;;;2.40;99.90;;;0.59;100.00;97966.94;4991934;28;20367;-77
2023/03/10 08:04:00;;;;;;;10.18;6.03;;;2.40;99.90;;;0.55;100.00;97961.19;4990460;28;20042;-78
2023/03/10 08:06:28;;;;;;;10.38;5.63;;;2.30;99.90;;;0.53;100.00;97960.56;4965809;28;20034;-77
2023/03/10 08:08:54;;;;;;;10.30;6.05;;;2.30;99.90;;;0.68;100.00;97987.09;4991120;28;20042;-76
2023/03/10 08:11:20;;;;;;;10.27;6.38;;;2.40;99.90;;;0.72;100.00;97987.50;4992009;28;20038;-78
2023/03/10 08:13:47;;;;;;;12.63;6.55;;;2.50;99.90;;;0.77;100.00;97990.34;4991069;28;20458;-78
2023/03/10 08:16:18;;;;;;;10.95;5.88;;;2.50;99.90;;;0.72;100.00;98003.59;4991873;28;20371;-77
2023/03/10 08:18:44;;;;;;;9.77;5.85;;;2.40;99.90;;;0.69;100.00;98002.16;4991031;28;20042;-79
2023/03/10 08:21:10;;;;;;;9.55;6.10;;;2.50;99.90;;;0.66;100.00;98007.97;4991630;28;20359;-77
2023/03/10 08:23:36;;;;;;;10.35;6.38;;;2.40;99.90;;;0.82;100.00;98009.28;4994209;28;20046;-77
2023/03/10 08:26:07;;;;;;;11.02;6.32;;;2.50;99.90;;;0.77;100.00;98021.72;4991316;28;20598;-77
2023/03/10 08:28:36;;;;;;;10.35;5.78;;;2.40;99.90;;;0.80;100.00;98022.13;4986940;28;20035;-76
2023/03/10 08:31:14;;;;;;;12.80;6.82;;;2.40;99.90;;;0.83;100.00;98024.34;4991453;28;20038;-76
2023/03/10 08:33:41;;;;;;;12.50;6.30;;;2.50;99.90;;;0.83;100.00;98004.75;4988843;28;20528;-76
2023/03/10 08:36:12;;;;;;;11.38;6.20;;;2.50;99.90;;;0.88;100.00;98012.13;4990932;28;20172;-77
2023/03/10 08:38:39;;;;;;;13.20;6.72;;;2.60;99.90;;;0.99;100.00;98014.94;4991431;28;20046;-76
2023/03/10 08:41:36;;;;;;;10.25;5.53;;;2.60;99.90;;;0.96;100.00;98018.06;4991556;28;20080;-75
2023/03/10 08:44:04;;;;;;;9.05;5.25;;;2.70;99.90;;;1.11;100.00;98017.72;4991622;28;20034;-76
2023/03/10 08:46:32;;;;;;;10.63;5.63;;;2.70;99.90;;;1.23;100.00;98020.53;4990616;28;20042;-76
2023/03/10 08:48:58;;;;;;;9.93;5.47;;;2.80;99.90;;;1.27;100.00;98021.72;4991083;28;20402;-76
2023/03/10 08:51:24;;;;;;;10.20;5.20;;;2.90;99.90;;;1.42;100.00;98009.81;4990723;28;20096;-76
2023/03/10 08:53:51;;;;;;;8.68;4.78;;;3.00;99.90;;;1.31;100.00;98010.53;4991311;28;20605;-76
2023/03/10 08:56:20;;;;;;;8.60;5.05;;;3.00;99.90;;;1.32;100.00;98012.19;4991669;28;20502;-76
2023/03/10 08:58:46;;;;;;;8.13;4.80;;;3.00;99.90;;;1.48;100.00;98013.50;4989530;28;20026;-76
2023/03/10 09:01:16;;;;;;;7.95;4.82;;;3.10;99.90;;;1.48;100.00;98018.88;4990989;28;20061;-77
2023/03/10 09:03:44;;;;;;;8.27;5.10;;;3.10;99.90;;;1.28;100.00;98031.44;4991251;28;20041;-76
2023/03/10 09:06:10;;;;;;;10.65;4.80;;;3.00;99.90;;;1.27;100.00;98032.47;4990766;28;20030;-77
2023/03/10 09:08:38;;;;;;;9.13;5.13;;;3.00;99.90;;;1.39;100.00;98039.81;4991166;28;20045;-76
2023/03/10 09:11:04;;;;;;;9.18;5.40;;;3.10;99.90;;;1.52;100.00;98038.88;4990517;28;20057;-76
2023/03/10 09:13:30;;;;;;;11.00;5.25;;;3.10;99.90;;;1.54;100.00;98037.59;5005885;28;20494;-77
2023/03/10 09:15:55;;;;;;;7.85;4.88;;;3.20;99.90;;;1.53;100.00;98032.44;4990652;28;20125;-77
2023/03/10 09:18:21;;;;;;;8.40;5.30;;;3.20;99.90;;;1.58;100.00;98036.09;4990603;28;20041;-77
2023/03/10 09:20:47;;;;;;;11.05;5.95;;;3.20;99.90;;;1.60;100.00;98046.63;4990311;28;20050;-76
2023/03/10 09:23:14;;;;;;;9.20;5.00;;;3.30;99.90;;;1.59;100.00;98061.13;4990779;28;20034;-75
2023/03/10 09:25:41;;;;;;;10.00;5.15;;;3.30;99.90;;;1.62;100.00;98062.56;4990759;28;20057;-76
2023/03/10 09:28:09;;;;;;;7.22;4.40;;;3.30;99.90;;;1.59;100.00;98058.44;4990543;28;20042;-76
2023/03/10 09:30:37;;;;;;;8.38;4.70;;;3.30;99.90;;;1.69;100.00;98058.72;5005437;28;20042;-76
2023/03/10 09:33:06;;;;;;;8.68;4.82;;;3.40;99.90;;;1.84;100.00;98053.00;4989161;28;20030;-76
2023/03/10 09:35:32;;;;;;;6.57;4.45;;;3.50;99.90;;;2.00;100.00;98051.59;4990675;28;20046;-76
2023/03/10 09:37:57;;;;;;;7.30;4.25;;;3.60;99.90;;;2.23;100.00;98051.94;5005003;28;20087;-76
2023/03/10 09:40:24;;;;;;;7.43;4.45;;;3.80;99.90;;;2.37;100.00;98049.91;4989483;28;20049;-76
2023/03/10 09:43:13;;;;;;;7.65;4.60;;;3.90;99.90;;;2.71;100.00;98050.25;4983615;28;20033;-76
2023/03/10 09:45:54;;;;;;;7.93;4.50;;;4.20;99.90;;;2.99;100.00;98062.28;4987385;28;20046;-76
2023/03/10 09:48:45;;;;;;;7.97;4.60;;;4.40;99.90;;;2.84;100.00;98054.63;4984189;28;20493;-77
2023/03/10 09:51:24;;;;;;;6.97;3.97;;;4.50;99.90;;;2.84;100.00;98060.84;4986326;28;20084;-77
2023/03/10 09:54:34;;;;;;;7.07;3.90;;;4.50;99.90;;;3.04;100.00;98061.59;4990653;28;20503;-77
2023/03/10 09:57:00;;;;;;;6.82;3.90;;;4.60;99.90;;;2.95;100.00;98061.94;4988931;28;20062;-77
2023/03/10 09:59:40;;;;;;;7.03;4.40;;;4.60;99.90;;;3.01;100.00;98060.19;4989421;28;20038;-76
2023/03/10 10:02:22;;;;;;;6.40;3.80;;;4.70;99.90;;;2.96;100.00;98057.38;4990431;28;20031;-76
2023/03/10 10:04:57;;;;;;;6.05;3.58;;;4.70;99.90;;;2.86;100.00;98063.31;4988995;28;20493;-76
2023/03/10 10:07:28;;;;;;;5.85;3.53;;;4.60;99.90;;;2.74;100.00;98065.97;4990727;28;20066;-76
2023/03/10 10:10:06;;;;;;;6.03;3.50;;;4.50;99.90;;;2.91;100.00;98060.75;4989751;28;20042;-77
2023/03/10 10:12:32;;;;;;;6.97;3.27;;;4.60;99.90;;;2.96;100.00;98070.84;4989822;28;20038;-77
2023/03/10 10:15:12;;;;;;;5.22;3.05;;;4.60;99.90;;;2.89;100.00;98065.53;4988813;28;20040;-76
2023/03/10 10:17:58;;;;;;;5.85;3.58;;;4.50;99.90;;;3.02;100.00;98070.75;4989600;28;20117;-76
2023/03/10 10:20:33;;;;;;;9.55;5.40;;;4.60;99.90;;;3.04;100.00;98083.16;4989931;28;20121;-76
2023/03/10 10:22:58;;;;;;;8.55;4.90;;;4.60;99.90;;;2.81;100.00;98080.16;4985611;28;20072;-77